createdAt,value
2022-10-30T00:00:02.846Z,53.8
2022-10-30T00:05:01.220Z,54.9
2022-10-30T00:10:01.248Z,56.1
2022-10-30T00:15:01.882Z,56.6
2022-10-30T00:20:01.261Z,55.8
2022-10-30T00:25:01.244Z,54.1
2022-10-30T00:30:01.653Z,53.3
2022-10-30T00:35:01.236Z,51.3
2022-10-30T00:40:01.275Z,51.2
2022-10-30T00:45:01.781Z,50.1
2022-10-30T00:50:01.225Z,50.5
2022-10-30T00:55:01.318Z,50.2
2022-10-30T02:00:05.369Z,50.1
2022-10-30T02:05:01.351Z,49.7
2022-10-30T02:10:01.258Z,49.2
2022-10-30T02:15:02.037Z,48.0
2022-10-30T02:20:01.263Z,47.3
2022-10-30T02:25:01.224Z,47.2
2022-10-30T02:30:02.074Z,47.2
2022-10-30T02:35:01.222Z,47.0
2022-10-30T02:40:01.262Z,46.9
2022-10-30T02:45:01.839Z,45.9
2022-10-30T02:50:01.883Z,45.8
2022-10-30T02:55:01.258Z,44.4
2022-10-30T03:00:02.370Z,44.3
2022-10-30T03:05:01.093Z,44.6
2022-10-30T03:10:01.076Z,43.1
2022-10-30T03:15:01.486Z,43.0
2022-10-30T03:20:01.037Z,42.9
2022-10-30T03:25:01.093Z,42.8
2022-10-30T03:30:01.421Z,42.8
2022-10-30T03:35:00.970Z,44.6
2022-10-30T03:40:00.971Z,43.5
2022-10-30T03:45:01.342Z,43.7
2022-10-30T03:50:01.234Z,43.9
2022-10-30T03:55:00.925Z,44.1
2022-10-30T04:00:01.074Z,43.2
2022-10-30T04:05:01.362Z,44.0
2022-10-30T04:10:01.288Z,43.4
2022-10-30T04:15:02.267Z,43.1
2022-10-30T04:25:01.327Z,43.4
2022-10-30T04:30:01.828Z,44.0
2022-10-30T04:35:01.293Z,45.3
2022-10-30T04:40:01.595Z,45.2
2022-10-30T04:45:14.137Z,44.5
2022-10-30T04:55:00.936Z,44.4
2022-10-30T05:00:06.011Z,44.5
2022-10-30T05:05:01.284Z,45.0
2022-10-30T05:10:01.410Z,44.3
2022-10-30T05:15:02.284Z,44.3
2022-10-30T05:20:01.297Z,43.9
2022-10-30T05:25:01.328Z,42.9
2022-10-30T05:30:01.820Z,42.6
2022-10-30T05:35:01.281Z,43.2
2022-10-30T05:40:01.205Z,42.3
2022-10-30T05:45:03.648Z,42.2
2022-10-30T05:50:01.370Z,40.8
2022-10-30T05:55:01.309Z,39.6
2022-10-30T06:00:01.971Z,39.3
2022-10-30T06:05:01.326Z,39.9
2022-10-30T06:10:01.434Z,40.2
2022-10-30T06:15:02.148Z,41.7
2022-10-30T06:20:01.326Z,42.8
2022-10-30T06:25:01.360Z,43.0
2022-10-30T06:30:01.923Z,43.4
2022-10-30T06:35:01.292Z,42.9
2022-10-30T06:40:01.288Z,42.4
2022-10-30T06:45:01.958Z,41.6
2022-10-30T06:50:01.293Z,42.1
2022-10-30T06:55:01.313Z,42.4
2022-10-30T07:00:02.325Z,42.1
2022-10-30T07:05:01.954Z,42.6
2022-10-30T07:10:01.328Z,41.7
2022-10-30T07:15:02.037Z,41.8
2022-10-30T07:20:01.293Z,41.0
2022-10-30T07:25:01.329Z,41.4
2022-10-30T07:30:01.795Z,41.8
2022-10-30T07:35:01.586Z,42.6
2022-10-30T07:40:01.099Z,41.4
2022-10-30T07:45:02.065Z,41.6
2022-10-30T07:50:01.065Z,41.2
2022-10-30T07:55:01.093Z,39.4
2022-10-30T08:00:06.812Z,38.4
2022-10-30T08:05:01.086Z,38.7
2022-10-30T08:10:01.074Z,39.1
2022-10-30T08:15:01.623Z,37.9
2022-10-30T08:20:01.255Z,40.1
2022-10-30T08:25:01.286Z,41.3
2022-10-30T08:30:01.735Z,42.1
2022-10-30T08:35:01.656Z,41.6
2022-10-30T08:40:01.364Z,42.4
2022-10-30T08:45:01.917Z,40.7
2022-10-30T08:50:01.320Z,40.4
2022-10-30T08:55:01.481Z,39.0
2022-10-30T09:00:02.638Z,38.9
2022-10-30T09:05:02.034Z,39.4
2022-10-30T09:10:01.295Z,40.3
2022-10-30T09:15:01.868Z,39.4
2022-10-30T09:20:01.492Z,39.7
2022-10-30T09:25:01.322Z,38.8
2022-10-30T09:30:01.925Z,38.9
2022-10-30T09:35:01.385Z,36.6
2022-10-30T09:40:02.527Z,43.9
2022-10-30T09:45:29.021Z,45.4
2022-10-30T09:50:01.223Z,46.8
2022-10-30T09:55:16.964Z,46.0
2022-10-30T10:00:06.666Z,48.1
2022-10-30T10:05:01.237Z,41.8
2022-10-30T10:10:01.386Z,40.3
2022-10-30T10:15:05.328Z,39.7
2022-10-30T10:20:01.332Z,41.1
2022-10-30T10:25:01.351Z,40.4
2022-10-30T10:30:04.339Z,39.4
2022-10-30T10:35:00.732Z,39.0
2022-10-30T10:40:16.873Z,36.5
2022-10-30T10:45:16.712Z,35.2
2022-10-30T10:50:01.008Z,34.8
2022-10-30T10:55:00.900Z,34.3
2022-10-30T11:00:07.040Z,34.2
2022-10-30T11:05:00.937Z,34.3
2022-10-30T11:15:16.577Z,34.0
2022-10-30T11:20:00.950Z,34.4
2022-10-30T11:25:01.222Z,33.5
2022-10-30T11:30:03.596Z,34.6
2022-10-30T11:55:09.599Z,30.8
2022-10-30T12:00:13.412Z,29.3
2022-10-30T12:05:01.533Z,29.1
2022-10-30T12:10:01.533Z,29.2
2022-10-30T12:15:17.215Z,30.6
2022-10-30T12:20:01.712Z,29.5
2022-10-30T12:25:01.534Z,28.8
2022-10-30T12:30:19.649Z,28.0
2022-10-30T12:35:01.668Z,28.6
2022-10-30T12:40:01.568Z,25.6
2022-10-30T12:45:07.181Z,26.5
2022-10-30T12:50:01.602Z,27.4
2022-10-30T12:55:01.555Z,28.1
2022-10-30T13:00:09.161Z,27.8
2022-10-30T13:05:01.588Z,30.4
2022-10-30T13:15:04.844Z,31.6
2022-10-30T13:20:01.529Z,36.6
2022-10-30T13:25:03.513Z,41.2
2022-10-30T13:30:04.937Z,46.0
2022-10-30T13:35:01.449Z,46.3
2022-10-30T13:40:01.606Z,46.5
2022-10-30T13:45:17.167Z,40.8
2022-10-30T13:50:01.422Z,37.3
2022-10-30T13:55:01.448Z,30.4
2022-10-30T14:00:05.545Z,30.5
2022-10-30T14:05:01.520Z,30.0
2022-10-30T14:10:01.538Z,31.5
2022-10-30T14:15:03.788Z,30.6
2022-10-30T14:20:01.509Z,31.2
2022-10-30T14:30:02.090Z,31.1
2022-10-30T14:35:01.529Z,31.3
2022-10-30T14:40:01.500Z,32.0
2022-10-30T14:45:16.737Z,32.0
2022-10-30T14:50:16.839Z,32.8
2022-10-30T14:55:17.273Z,33.2
2022-10-30T15:00:17.324Z,33.6
2022-10-30T15:05:25.377Z,33.3
2022-10-30T15:10:01.414Z,34.4
2022-10-30T15:15:04.192Z,34.4
2022-10-30T15:20:01.537Z,35.1
2022-10-30T15:25:02.342Z,34.6
2022-10-30T15:30:02.683Z,34.8
2022-10-30T15:35:01.406Z,35.0
2022-10-30T15:40:01.388Z,34.6
2022-10-30T15:45:02.094Z,35.2
2022-10-30T15:50:01.291Z,37.1
2022-10-30T15:55:05.689Z,38.9
2022-10-30T16:00:04.493Z,40.5
2022-10-30T16:05:01.500Z,42.3
2022-10-30T16:10:01.276Z,43.5
2022-10-30T16:15:06.925Z,44.1
2022-10-30T16:20:01.229Z,44.8
2022-10-30T16:25:01.227Z,46.6
2022-10-30T16:30:01.852Z,48.9
2022-10-30T16:35:01.479Z,50.1
2022-10-30T16:40:05.813Z,52.0
2022-10-30T16:45:16.919Z,54.5
2022-10-30T16:50:01.419Z,55.5
2022-10-30T16:55:01.520Z,56.9
2022-10-30T17:00:02.960Z,57.8
2022-10-30T17:05:01.570Z,57.4
2022-10-30T17:10:01.563Z,56.9
2022-10-30T17:15:11.866Z,56.5
2022-10-30T17:20:01.408Z,55.6
2022-10-30T17:25:01.281Z,54.5
2022-10-30T17:30:02.321Z,54.4
2022-10-30T17:40:01.492Z,55.2
2022-10-30T17:45:02.739Z,57.7
2022-10-30T17:50:01.516Z,59.0
2022-10-30T17:55:01.531Z,59.2
2022-10-30T18:00:02.058Z,59.4
2022-10-30T18:05:01.531Z,60.4
2022-10-30T18:10:01.651Z,58.7
2022-10-30T18:15:17.199Z,58.9
2022-10-30T18:20:01.684Z,59.1
2022-10-30T18:25:01.549Z,59.2
2022-10-30T18:30:02.589Z,58.5
2022-10-30T18:35:01.678Z,58.9
2022-10-30T18:45:08.939Z,58.5
2022-10-30T18:50:01.568Z,59.2
2022-10-30T18:55:01.577Z,58.2
2022-10-30T19:00:02.282Z,57.4
2022-10-30T19:05:01.557Z,56.6
2022-10-30T19:10:01.635Z,57.1
2022-10-30T19:15:11.880Z,57.6
2022-10-30T19:20:01.539Z,59.2
2022-10-30T19:25:01.436Z,60.8
2022-10-30T19:31:01.559Z,63.2
2022-10-30T19:36:01.517Z,64.8
2022-10-30T19:41:01.947Z,64.5
2022-10-30T19:46:01.522Z,64.3
2022-10-30T19:51:01.685Z,63.0
2022-10-30T19:56:01.548Z,60.2
2022-10-30T20:01:01.607Z,60.8
2022-10-30T20:06:01.517Z,60.4
2022-10-30T20:11:01.614Z,57.9
2022-10-30T20:16:01.502Z,57.8
2022-10-30T20:21:01.565Z,59.6
2022-10-30T20:26:01.576Z,58.4
2022-10-30T20:31:01.596Z,58.3
2022-10-30T20:36:01.884Z,60.1
2022-10-30T20:41:01.384Z,59.9
2022-10-30T20:46:01.344Z,60.0
2022-10-30T20:51:01.424Z,59.9
2022-10-30T20:56:01.327Z,60.4
2022-10-30T21:01:01.364Z,61.0
2022-10-30T21:06:01.306Z,62.0
2022-10-30T21:11:01.396Z,62.7
2022-10-30T21:16:03.538Z,64.3
2022-10-30T21:21:01.250Z,64.8
2022-10-30T21:26:02.993Z,66.3
2022-10-30T21:31:01.251Z,67.4
2022-10-30T21:36:07.732Z,68.3
2022-10-30T21:41:01.509Z,68.1
2022-10-30T21:47:01.480Z,68.0
2022-10-30T21:52:01.532Z,66.8
2022-10-30T21:57:02.678Z,66.3
2022-10-30T22:02:01.563Z,64.2
2022-10-30T22:07:01.573Z,63.0
2022-10-30T22:12:01.268Z,62.5
2022-10-30T22:17:01.503Z,62.3
2022-10-30T22:22:01.527Z,61.4
2022-10-30T22:27:01.200Z,61.2
2022-10-30T22:32:01.428Z,61.0
2022-10-30T22:37:01.433Z,60.5
2022-10-30T22:42:01.560Z,60.2
2022-10-30T22:47:01.323Z,60.1
2022-10-30T22:52:01.440Z,60.8
2022-10-30T22:57:01.410Z,61.2
2022-10-30T23:02:01.345Z,60.4
2022-10-30T23:07:01.265Z,60.0
2022-10-30T23:12:01.291Z,58.7
2022-10-30T23:17:01.540Z,57.3
2022-10-30T23:22:01.708Z,55.2
2022-10-30T23:27:01.554Z,55.1
2022-10-30T23:32:01.533Z,53.9
2022-10-30T23:37:01.879Z,54.7
2022-10-30T23:42:02.049Z,55.7
2022-10-30T23:47:01.573Z,56.6
2022-10-30T23:52:01.568Z,57.0
2022-10-30T23:57:01.558Z,57.3
